Time;durP1;ratioP1;P1;durP2;ratioP2;P2;SDS_P1;SDS_P2;PMS_P1;PMS_P2;Temp;Humidity;BMP_temperature;BMP_pressure;BME280_temperature;BME280_humidity;BME280_pressure;Samples;Min_cycle;Max_cycle;Signal;HPM_P1;HPM_P2
2023/01/02 00:00:56;;;;;;;4.80;1.63;;;9.10;99.90;;;;;;4945150;29;20047;-81
2023/01/02 00:03:22;;;;;;;5.95;1.48;;;9.00;99.90;;;;;;5002360;28;20055;-81
2023/01/02 00:05:48;;;;;;;4.05;1.15;;;9.00;99.90;;;;;;4933509;28;20040;-81
2023/01/02 00:08:16;;;;;;;2.25;1.42;;;9.00;99.90;;;;;;4928515;29;20413;-82
2023/01/02 00:10:42;;;;;;;2.78;1.08;;;9.00;99.90;;;;;;4944128;29;20549;-81
2023/01/02 00:13:08;;;;;;;1.40;0.75;;;9.00;99.90;;;;;;5011283;28;20971;-81
2023/01/02 00:15:34;;;;;;;2.03;1.27;;;9.00;99.90;;;;;;4928519;29;20091;-81
2023/01/02 00:17:59;;;;;;;4.28;1.20;;;9.00;99.90;;;;;;4927921;29;20047;-81
2023/01/02 00:20:25;;;;;;;2.28;1.10;;;9.00;99.90;;;;;;4945299;29;20058;-81
2023/01/02 00:22:50;;;;;;;2.13;1.15;;;9.00;99.90;;;;;;4944697;29;20074;-81
2023/01/02 00:25:16;;;;;;;2.38;1.00;;;9.00;99.90;;;;;;4944017;28;20040;-81
2023/01/02 00:27:42;;;;;;;2.20;1.83;;;9.00;99.90;;;;;;4927440;28;20480;-81
2023/01/02 00:30:08;;;;;;;2.00;1.08;;;9.00;99.90;;;;;;4944555;28;20086;-81
2023/01/02 00:32:33;;;;;;;1.48;1.17;;;9.00;99.90;;;;;;4944813;28;20070;-81
2023/01/02 00:34:59;;;;;;;3.53;1.67;;;8.90;99.90;;;;;;4944821;28;20379;-81
2023/01/02 00:37:24;;;;;;;3.33;1.83;;;8.90;99.90;;;;;;4927496;28;20103;-81
2023/01/02 00:39:50;;;;;;;2.10;1.70;;;8.90;99.90;;;;;;4943638;28;20379;-81
2023/01/02 00:42:16;;;;;;;2.65;1.40;;;8.90;99.90;;;;;;4927552;28;20066;-81
2023/01/02 00:44:41;;;;;;;2.88;1.63;;;8.90;99.90;;;;;;4944447;29;20047;-81
2023/01/02 00:47:07;;;;;;;2.72;1.83;;;9.00;99.90;;;;;;4944105;28;20114;-81
2023/01/02 00:49:32;;;;;;;1.83;1.63;;;8.90;99.90;;;;;;4927108;29;20054;-80
2023/01/02 00:51:58;;;;;;;3.20;2.03;;;9.00;99.90;;;;;;4943860;28;20134;-81
2023/01/02 00:54:23;;;;;;;6.78;3.38;;;9.00;99.90;;;;;;4925957;29;20056;-81
2023/01/02 00:56:49;;;;;;;5.43;2.47;;;9.00;99.90;;;;;;4925178;29;20054;-81
2023/01/02 00:59:14;;;;;;;6.75;2.88;;;9.00;99.90;;;;;;4927421;29;20047;-81
2023/01/02 01:01:40;;;;;;;4.75;3.10;;;9.10;99.90;;;;;;4944423;29;20101;-81
2023/01/02 01:04:05;;;;;;;5.47;3.80;;;9.10;99.90;;;;;;4927114;28;20130;-81
2023/01/02 01:06:33;;;;;;;5.80;4.35;;;9.10;99.90;;;;;;4944278;29;20043;-81
2023/01/02 01:08:58;;;;;;;8.65;4.60;;;9.10;99.90;;;;;;4926898;29;20130;-81
2023/01/02 01:11:24;;;;;;;8.75;4.93;;;9.10;99.90;;;;;;4926213;28;20122;-81
2023/01/02 01:13:51;;;;;;;9.35;6.57;;;9.20;99.90;;;;;;4944074;28;20040;-81
2023/01/02 01:16:18;;;;;;;10.02;6.07;;;9.20;99.90;;;;;;4943356;28;20862;-81
2023/01/02 01:18:44;;;;;;;9.00;6.55;;;9.20;99.90;;;;;;4944595;29;20545;-81
2023/01/02 01:21:18;;;;;;;9.20;5.75;;;9.30;99.90;;;;;;4943564;29;20039;-80
2023/01/02 01:23:51;;;;;;;8.80;5.80;;;9.30;99.90;;;;;;4970043;28;20183;-81
2023/01/02 01:26:17;;;;;;;10.50;7.20;;;9.30;99.90;;;;;;5003054;28;20043;-81
2023/01/02 01:28:43;;;;;;;8.60;5.22;;;9.30;99.90;;;;;;4943977;28;20055;-81
2023/01/02 01:31:12;;;;;;;8.00;5.15;;;9.40;99.90;;;;;;4943727;29;20088;-81
2023/01/02 01:33:38;;;;;;;11.57;7.00;;;9.40;99.90;;;;;;4944231;28;20055;-81
2023/01/02 01:36:07;;;;;;;10.35;6.70;;;9.40;99.90;;;;;;4943075;29;20104;-80
2023/01/02 01:38:33;;;;;;;10.88;5.35;;;9.40;99.90;;;;;;4943890;28;20043;-81
2023/01/02 01:41:00;;;;;;;6.55;4.70;;;9.50;99.90;;;;;;4942681;29;20039;-81
2023/01/02 01:43:40;;;;;;;9.13;4.72;;;9.50;99.90;;;;;;4943887;28;20572;-80
2023/01/02 01:46:22;;;;;;;7.85;4.93;;;9.50;99.90;;;;;;4943998;28;20114;-81
2023/01/02 01:48:51;;;;;;;;;;;9.60;99.90;;;;;;4944640;29;20051;-81
2023/01/02 01:51:19;;;;;;;8.32;5.05;;;9.60;99.90;;;;;;4927092;28;19918;-81
2023/01/02 01:53:48;;;;;;;7.55;5.40;;;9.70;99.90;;;;;;5003989;28;20064;-81
2023/01/02 01:56:14;;;;;;;13.30;5.65;;;9.60;99.90;;;;;;4951372;28;20127;-81
2023/01/02 01:58:43;;;;;;;9.48;5.72;;;9.60;99.90;;;;;;4958390;28;20122;-81
2023/01/02 02:01:12;;;;;;;12.30;7.40;;;9.60;99.90;;;;;;4925969;29;20063;-81
2023/01/02 02:03:41;;;;;;;8.13;6.32;;;9.70;99.90;;;;;;4943953;28;20093;-81
2023/01/02 02:06:07;;;;;;;10.30;7.40;;;9.70;99.90;;;;;;4944707;28;20074;-81
2023/01/02 02:08:46;;;;;;;11.05;6.50;;;9.70;99.90;;;;;;4946754;29;20075;-81
2023/01/02 02:11:13;;;;;;;12.43;6.90;;;9.70;99.90;;;;;;4927965;29;20040;-81
2023/01/02 02:13:39;;;;;;;16.45;7.60;;;9.70;99.90;;;;;;4946979;29;20069;-81
2023/01/02 02:16:24;;;;;;;11.63;7.13;;;9.70;99.90;;;;;;4946186;28;20031;-81
2023/01/02 02:19:14;;;;;;;13.30;9.32;;;9.70;99.90;;;;;;4946269;28;20081;-81
2023/01/02 02:21:54;;;;;;;13.70;9.98;;;9.70;99.90;;;;;;4946586;29;20059;-81
2023/01/02 02:24:44;;;;;;;15.32;10.20;;;9.70;99.90;;;;;;4897668;29;20055;-81
2023/01/02 02:27:48;;;;;;;21.92;13.32;;;9.70;99.90;;;;;;4982463;28;20043;-81
2023/01/02 02:30:20;;;;;;;19.85;13.75;;;9.80;99.90;;;;;;4934717;29;20047;-80
2023/01/02 02:33:07;;;;;;;22.17;14.48;;;9.80;99.90;;;;;;4961576;28;20096;-81
2023/01/02 02:35:48;;;;;;;24.08;14.45;;;9.80;99.90;;;;;;4946265;28;20089;-80
2023/01/02 02:38:34;;;;;;;24.50;16.20;;;9.80;99.90;;;;;;4946961;28;20043;-80
2023/01/02 02:41:25;;;;;;;34.60;17.52;;;9.80;99.90;;;;;;4945018;28;20055;-81
2023/01/02 02:44:03;;;;;;;28.00;17.70;;;9.80;99.90;;;;;;4946302;29;20047;-81
2023/01/02 02:46:34;;;;;;;30.83;17.25;;;9.90;99.90;;;;;;4946476;28;20040;-81
2023/01/02 02:49:14;;;;;;;43.05;18.70;;;9.90;99.90;;;;;;4960784;28;20047;-81
2023/01/02 02:51:57;;;;;;;32.22;20.48;;;9.90;99.90;;;;;;4945736;29;20081;-80
2023/01/02 02:54:32;;;;;;;49.60;22.92;;;9.90;99.90;;;;;;4928080;28;20067;-81
2023/01/02 02:56:59;;;;;;;31.05;19.70;;;9.90;99.90;;;;;;5011354;28;20391;-81
2023/01/02 02:59:25;;;;;;;36.30;19.70;;;9.90;99.90;;;;;;4946415;28;20402;-81
2023/01/02 03:01:51;;;;;;;31.88;21.92;;;9.90;99.90;;;;;;4945701;28;20043;-81
2023/01/02 03:04:19;;;;;;;42.03;21.83;;;10.00;99.90;;;;;;4946532;29;20039;-81
2023/01/02 03:07:01;;;;;;;48.65;23.88;;;9.90;99.90;;;;;;4946466;29;20417;-80
2023/01/02 03:09:39;;;;;;;44.95;22.08;;;9.90;99.90;;;;;;5011822;28;20114;-81
2023/01/02 03:12:10;;;;;;;38.85;21.63;;;10.00;99.90;;;;;;4945995;28;20079;-80
2023/01/02 03:14:52;;;;;;;44.30;23.65;;;10.00;99.90;;;;;;4923076;29;20039;-80
2023/01/02 03:17:31;;;;;;;38.20;22.73;;;10.00;99.90;;;;;;4955781;28;20047;-80
2023/01/02 03:20:03;;;;;;;43.45;24.35;;;10.00;99.90;;;;;;4930381;28;20047;-80
2023/01/02 03:22:32;;;;;;;40.58;23.98;;;10.00;99.90;;;;;;4945914;28;20061;-81
2023/01/02 03:24:58;;;;;;;42.28;23.60;;;10.10;99.90;;;;;;4944516;29;20077;-81
2023/01/02 03:27:28;;;;;;;43.08;20.90;;;10.10;99.90;;;;;;4945572;28;20047;-81
2023/01/02 03:30:07;;;;;;;39.35;22.45;;;10.10;99.90;;;;;;4945443;29;20049;-81
2023/01/02 03:32:38;;;;;;;29.55;17.65;;;10.10;99.90;;;;;;5011864;28;20791;-80
2023/01/02 03:35:16;;;;;;;52.47;24.90;;;10.10;99.90;;;;;;4928353;29;20058;-81
2023/01/02 03:37:47;;;;;;;36.65;21.08;;;10.10;99.90;;;;;;4945361;29;20055;-80
2023/01/02 03:40:18;;;;;;;35.17;20.88;;;10.10;99.90;;;;;;4959517;28;20048;-80
2023/01/02 03:43:22;;;;;;;37.95;20.02;;;10.10;99.90;;;;;;4945901;29;20039;-81
2023/01/02 03:45:55;;;;;;;31.77;20.23;;;10.10;99.90;;;;;;4927836;28;20047;-81
2023/01/02 03:48:38;;;;;;;36.10;20.42;;;10.10;99.90;;;;;;4901140;29;20410;-80
2023/01/02 03:51:04;;;;;;;40.13;21.33;;;10.10;99.90;;;;;;4926378;29;20048;-81
2023/01/02 03:53:32;;;;;;;38.50;20.50;;;10.10;99.90;;;;;;4926243;29;20067;-81
2023/01/02 03:56:37;;;;;;;30.75;18.08;;;10.10;99.90;;;;;;4925275;28;20059;-80
2023/01/02 03:59:21;;;;;;;34.72;18.45;;;10.20;99.90;;;;;;4926042;28;20177;-81
2023/01/02 04:01:58;;;;;;;37.47;19.10;;;10.20;99.90;;;;;;4945717;28;20736;-81
2023/01/02 04:04:50;;;;;;;35.45;19.45;;;10.20;99.90;;;;;;4944116;29;20035;-80
2023/01/02 04:07:27;;;;;;;38.65;19.77;;;10.20;99.90;;;;;;4960085;28;20047;-81
2023/01/02 04:09:54;;;;;;;35.03;18.90;;;10.20;99.90;;;;;;4943951;29;20423;-81
2023/01/02 04:12:23;;;;;;;38.08;20.55;;;10.20;99.90;;;;;;4945172;29;20039;-81
2023/01/02 04:15:00;;;;;;;39.15;19.92;;;10.20;99.90;;;;;;4945019;29;20048;-81
2023/01/02 04:17:29;;;;;;;34.83;18.35;;;10.20;99.90;;;;;;4944583;29;20524;-80
2023/01/02 04:20:03;;;;;;;36.42;19.75;;;10.20;99.90;;;;;;4945094;28;20105;-81
2023/01/02 04:22:33;;;;;;;34.42;19.83;;;10.20;99.90;;;;;;4945143;28;20047;-81
2023/01/02 04:25:09;;;;;;;32.47;17.77;;;10.20;99.90;;;;;;5009583;28;20043;-81
2023/01/02 04:27:41;;;;;;;33.47;19.00;;;10.20;99.90;;;;;;4944929;29;20126;-81
2023/01/02 04:30:07;;;;;;;33.80;18.27;;;10.30;99.90;;;;;;4944349;28;20035;-81
2023/01/02 04:32:44;;;;;;;28.35;16.25;;;10.30;99.90;;;;;;4945067;29;20039;-81
2023/01/02 04:35:22;;;;;;;28.73;16.85;;;10.30;99.90;;;;;;4944613;29;20043;-81
2023/01/02 04:37:48;;;;;;;29.45;16.85;;;10.30;99.90;;;;;;4944788;29;20456;-81
2023/01/02 04:40:27;;;;;;;28.23;14.63;;;10.30;99.90;;;;;;4944314;28;20051;-81
2023/01/02 04:42:54;;;;;;;25.85;14.52;;;10.30;99.90;;;;;;4927483;28;20043;-81
2023/01/02 04:45:20;;;;;;;27.30;15.25;;;10.30;99.90;;;;;;4944660;29;20047;-81
2023/01/02 04:47:49;;;;;;;23.77;14.43;;;10.30;99.90;;;;;;4945079;28;20089;-81
2023/01/02 04:50:15;;;;;;;25.65;15.25;;;10.30;99.90;;;;;;4945057;28;20097;-81
2023/01/02 04:52:40;;;;;;;23.73;14.90;;;10.30;99.90;;;;;;4943705;29;20044;-81
2023/01/02 04:55:08;;;;;;;23.33;13.75;;;10.30;99.90;;;;;;4990433;28;20124;-81
2023/01/02 04:57:37;;;;;;;25.45;14.77;;;10.30;99.90;;;;;;5024272;28;20111;-81
2023/01/02 05:00:06;;;;;;;20.80;12.95;;;10.30;99.90;;;;;;4944009;29;20070;-81
2023/01/02 05:02:35;;;;;;;23.98;13.90;;;10.30;99.90;;;;;;4944387;29;20126;-81
2023/01/02 05:05:01;;;;;;;25.70;13.63;;;10.20;99.90;;;;;;4943294;29;20497;-81
2023/01/02 05:07:27;;;;;;;23.25;12.15;;;10.20;99.90;;;;;;4923695;29;20070;-81
2023/01/02 05:09:52;;;;;;;20.55;11.95;;;10.30;99.90;;;;;;4943221;29;20515;-81
2023/01/02 05:12:18;;;;;;;18.27;11.15;;;10.20;99.90;;;;;;4944545;29;20053;-81
2023/01/02 05:14:44;;;;;;;21.75;13.15;;;10.20;99.90;;;;;;4944683;29;20043;-81
2023/01/02 05:17:09;;;;;;;20.23;12.98;;;10.20;99.90;;;;;;4943571;28;20097;-81
2023/01/02 05:19:35;;;;;;;23.05;12.77;;;10.20;99.90;;;;;;4944221;28;20097;-81
2023/01/02 05:24:44;;;;;;;19.92;13.35;;;10.20;99.90;;;;;;4943451;29;20057;-81
2023/01/02 05:27:10;;;;;;;21.05;12.73;;;10.20;99.90;;;;;;4939819;28;20701;-81
2023/01/02 05:29:36;;;;;;;23.88;12.30;;;10.20;99.90;;;;;;4926380;28;20047;-81
2023/01/02 05:32:01;;;;;;;19.00;12.43;;;10.20;99.90;;;;;;4943635;29;20036;-81
2023/01/02 05:34:27;;;;;;;17.92;11.32;;;10.20;99.90;;;;;;4924410;29;20047;-81
2023/01/02 05:36:52;;;;;;;17.33;11.30;;;10.20;99.90;;;;;;4925864;28;20042;-81
2023/01/02 05:39:18;;;;;;;15.73;11.00;;;10.20;99.90;;;;;;4943308;29;20425;-81
2023/01/02 05:41:43;;;;;;;18.98;11.75;;;10.20;99.90;;;;;;4946432;28;20126;-81
2023/01/02 05:44:10;;;;;;;21.08;11.80;;;10.10;99.90;;;;;;4929269;28;20035;-81
2023/01/02 05:46:37;;;;;;;22.40;12.20;;;10.10;99.90;;;;;;4945770;28;20109;-81
2023/01/02 05:49:04;;;;;;;21.45;12.57;;;10.10;99.90;;;;;;5013360;28;20058;-82
2023/01/02 05:51:30;;;;;;;31.33;15.75;;;10.00;99.90;;;;;;4946712;28;20051;-82
2023/01/02 05:53:55;;;;;;;36.13;18.20;;;10.00;99.90;;;;;;4960206;28;20058;-81
2023/01/02 05:56:21;;;;;;;22.45;12.65;;;9.90;99.90;;;;;;4946821;29;20458;-80
2023/01/02 05:58:48;;;;;;;21.13;10.20;;;9.90;99.90;;;;;;4947253;29;20481;-81
2023/01/02 06:01:15;;;;;;;21.88;10.95;;;9.80;99.90;;;;;;4947074;28;20566;-80
2023/01/02 06:03:44;;;;;;;9.60;4.70;;;9.60;99.90;;;;;;4946933;28;20058;-80
2023/01/02 06:06:10;;;;;;;11.85;4.82;;;9.50;99.90;;;;;;4947228;28;20043;-80
2023/01/02 06:08:36;;;;;;;9.48;4.65;;;9.40;99.90;;;;;;4945911;29;20456;-81
2023/01/02 06:11:03;;;;;;;6.03;2.53;;;9.40;99.90;;;;;;4946653;28;20043;-80
2023/01/02 06:13:30;;;;;;;6.70;2.53;;;9.30;99.90;;;;;;4946628;28;20033;-81
2023/01/02 06:15:57;;;;;;;4.05;2.50;;;9.20;99.90;;;;;;4928885;29;20482;-80
2023/01/02 06:18:24;;;;;;;5.78;2.53;;;9.20;99.90;;;;;;4942520;28;20039;-80
2023/01/02 06:20:49;;;;;;;5.30;2.60;;;9.10;99.90;;;;;;4946292;28;20047;-80
2023/01/02 06:23:15;;;;;;;5.45;2.72;;;9.10;99.90;;;;;;4945045;29;20046;-82
2023/01/02 06:25:41;;;;;;;8.40;1.92;;;9.10;99.90;;;;;;4943630;28;20138;-80
2023/01/02 06:28:07;;;;;;;1.58;1.20;;;9.00;99.90;;;;;;4945789;29;20449;-82
2023/01/02 06:30:33;;;;;;;2.45;1.70;;;8.90;99.90;;;;;;4946024;28;20063;-84
2023/01/02 06:33:09;;;;;;;10.75;1.95;;;8.90;99.90;;;;;;4922201;29;20051;-82
2023/01/02 06:35:40;;;;;;;2.75;2.42;;;8.90;99.90;;;;;;4949181;28;20039;-82
2023/01/02 06:38:06;;;;;;;2.30;0.82;;;8.80;99.90;;;;;;4943600;28;20043;-81
2023/01/02 06:40:32;;;;;;;1.75;0.68;;;8.80;99.90;;;;;;4944125;28;20100;-81
2023/01/02 06:42:57;;;;;;;1.70;0.80;;;8.80;99.90;;;;;;4944254;29;20046;-81
2023/01/02 06:45:26;;;;;;;1.33;0.60;;;8.70;99.90;;;;;;4936198;28;20402;-82
2023/01/02 06:47:56;;;;;;;2.72;1.08;;;8.70;99.90;;;;;;4936936;28;20046;-82
2023/01/02 06:50:22;;;;;;;2.47;0.80;;;8.70;99.90;;;;;;4959929;28;20051;-83
2023/01/02 06:52:50;;;;;;;1.10;1.00;;;8.70;99.90;;;;;;4945378;28;20313;-81
2023/01/02 06:55:19;;;;;;;1.00;0.70;;;8.60;99.90;;;;;;4943936;28;20394;-82
2023/01/02 06:57:44;;;;;;;1.02;0.70;;;8.60;99.90;;;;;;4944725;28;20046;-81
2023/01/02 07:00:10;;;;;;;2.88;0.93;;;8.60;99.90;;;;;;4945124;28;20533;-82
2023/01/02 07:02:36;;;;;;;1.08;0.73;;;8.60;99.90;;;;;;4945289;29;20051;-81
2023/01/02 07:05:02;;;;;;;3.08;0.75;;;8.60;99.90;;;;;;4927183;29;20043;-81
2023/01/02 07:07:27;;;;;;;2.80;0.60;;;8.60;99.90;;;;;;4912265;29;20435;-81
2023/01/02 07:09:53;;;;;;;1.42;0.60;;;8.60;99.90;;;;;;4943116;28;20050;-81
2023/01/02 07:12:18;;;;;;;2.72;0.77;;;8.50;99.90;;;;;;4944952;28;20409;-82
2023/01/02 07:14:44;;;;;;;1.13;0.43;;;8.60;99.90;;;;;;4960429;28;20044;-81
2023/01/02 07:17:10;;;;;;;0.77;0.52;;;8.50;99.90;;;;;;4926728;28;20047;-82
2023/01/02 07:19:35;;;;;;;1.63;0.57;;;8.60;99.90;;;;;;4944865;29;20109;-81
2023/01/02 07:22:01;;;;;;;0.85;0.32;;;8.50;99.90;;;;;;4927020;28;20121;-81
2023/01/02 07:24:26;;;;;;;1.20;0.73;;;8.50;99.90;;;;;;4943743;29;20041;-82
2023/01/02 07:26:52;;;;;;;1.85;0.82;;;8.50;99.90;;;;;;5010574;28;20049;-81
2023/01/02 07:29:18;;;;;;;0.90;0.80;;;8.50;99.90;;;;;;4945056;28;20482;-81
2023/01/02 07:31:43;;;;;;;13.35;2.33;;;8.50;99.90;;;;;;4926232;29;20050;-81
2023/01/02 07:34:09;;;;;;;3.35;1.65;;;8.50;99.90;;;;;;4943979;29;20093;-80
2023/01/02 07:36:34;;;;;;;3.22;1.23;;;8.50;99.90;;;;;;4927810;29;20452;-81
2023/01/02 07:39:00;;;;;;;5.75;2.60;;;8.50;99.90;;;;;;4926238;29;20434;-81
2023/01/02 07:41:26;;;;;;;2.75;2.00;;;8.50;99.90;;;;;;4944524;29;20035;-81
2023/01/02 07:43:54;;;;;;;1.15;0.88;;;8.50;99.90;;;;;;4943830;28;20050;-81
2023/01/02 07:46:20;;;;;;;2.88;1.35;;;8.40;99.90;;;;;;4944540;29;20525;-81
2023/01/02 07:48:46;;;;;;;3.03;1.17;;;8.50;99.90;;;;;;4944869;29;20057;-81
2023/01/02 07:51:15;;;;;;;2.05;1.20;;;8.40;99.90;;;;;;4912357;29;20568;-81
2023/01/02 07:53:40;;;;;;;1.23;0.93;;;8.40;99.90;;;;;;4944085;28;20102;-81
2023/01/02 07:56:07;;;;;;;2.70;1.20;;;8.40;99.90;;;;;;4945536;28;20079;-80
2023/01/02 07:58:33;;;;;;;3.58;1.92;;;8.40;99.90;;;;;;4927117;28;20054;-81
2023/01/02 08:01:04;;;;;;;2.05;1.30;;;8.40;99.90;;;;;;4944680;28;20047;-80
2023/01/02 08:03:30;;;;;;;3.42;1.33;;;8.40;99.90;;;;;;4926160;29;20510;-81
2023/01/02 08:06:02;;;;;;;5.30;2.10;;;8.40;99.90;;;;;;4942990;29;20092;-81
2023/01/02 08:08:28;;;;;;;2.55;1.45;;;8.40;99.90;;;;;;5010120;28;20482;-81
2023/01/02 08:10:54;;;;;;;3.72;1.55;;;8.40;99.90;;;;;;4943592;28;20108;-81
2023/01/02 08:13:19;;;;;;;6.68;1.58;;;8.40;99.90;;;;;;4927706;28;20509;-81
2023/01/02 08:15:45;;;;;;;2.97;1.63;;;8.40;99.90;;;;;;4944300;28;20077;-81
2023/01/02 08:18:10;;;;;;;3.85;2.65;;;8.40;99.90;;;;;;4944257;29;20043;-81
2023/01/02 08:20:36;;;;;;;7.45;2.78;;;8.40;99.90;;;;;;4944850;29;20460;-81
2023/01/02 08:23:02;;;;;;;5.38;3.88;;;8.40;99.90;;;;;;4927464;29;20331;-81
2023/01/02 08:25:27;;;;;;;7.82;3.35;;;8.50;99.90;;;;;;4943670;29;20048;-81
2023/01/02 08:27:53;;;;;;;5.53;2.85;;;8.40;99.90;;;;;;4944426;29;20082;-81
2023/01/02 08:30:19;;;;;;;5.80;2.42;;;8.40;99.90;;;;;;4944897;28;20031;-82
2023/01/02 08:32:44;;;;;;;14.80;2.42;;;8.40;99.90;;;;;;4911644;29;20485;-81
2023/01/02 08:35:10;;;;;;;4.90;1.80;;;8.40;99.90;;;;;;4926681;29;20051;-80
2023/01/02 08:37:36;;;;;;;4.60;2.05;;;8.40;99.90;;;;;;4943990;28;20046;-80
2023/01/02 08:40:05;;;;;;;12.57;2.65;;;8.40;99.90;;;;;;4925281;28;20177;-80
2023/01/02 08:42:30;;;;;;;10.05;3.33;;;8.40;99.90;;;;;;4942746;28;20092;-81
2023/01/02 08:44:56;;;;;;;5.13;1.90;;;8.40;99.90;;;;;;4944004;28;20350;-80
2023/01/02 08:47:21;;;;;;;6.35;2.05;;;8.40;99.90;;;;;;4944290;29;20039;-81
2023/01/02 08:49:47;;;;;;;5.80;3.58;;;8.50;99.90;;;;;;4927150;28;20100;-81
2023/01/02 08:52:13;;;;;;;4.18;2.55;;;8.40;99.90;;;;;;4958946;28;20153;-80
2023/01/02 08:54:38;;;;;;;7.93;2.95;;;8.40;99.90;;;;;;4955270;28;20058;-82
2023/01/02 08:57:04;;;;;;;11.82;2.83;;;8.40;99.90;;;;;;4924996;29;20165;-81
2023/01/02 08:59:30;;;;;;;5.57;2.20;;;8.40;99.90;;;;;;4945042;29;20668;-82
2023/01/02 09:02:02;;;;;;;6.53;1.65;;;8.40;99.90;;;;;;4926775;28;20043;-81
2023/01/02 09:04:28;;;;;;;5.40;2.42;;;8.40;99.90;;;;;;4945370;28;20036;-82
2023/01/02 09:06:56;;;;;;;4.30;1.65;;;8.40;99.90;;;;;;4954001;28;20066;-81
2023/01/02 09:09:22;;;;;;;5.43;2.60;;;8.40;99.90;;;;;;4942906;28;20533;-81
2023/01/02 09:11:54;;;;;;;4.22;1.50;;;8.40;99.90;;;;;;4946569;28;20126;-81
2023/01/02 09:14:23;;;;;;;3.00;1.77;;;8.50;99.90;;;;;;4926698;28;20035;-82
2023/01/02 09:16:58;;;;;;;8.68;1.92;;;8.40;99.90;;;;;;4935092;28;20043;-82
2023/01/02 09:19:25;;;;;;;4.78;1.33;;;8.50;99.90;;;;;;4944366;28;20043;-82
2023/01/02 09:21:54;;;;;;;2.20;0.80;;;8.50;99.90;;;;;;4908455;28;20091;-82
2023/01/02 09:24:20;;;;;;;2.97;1.48;;;8.40;99.90;;;;;;4923010;28;20399;-81
2023/01/02 09:26:46;;;;;;;0.80;0.50;;;8.50;99.90;;;;;;4924054;29;20044;-82
2023/01/02 09:29:12;;;;;;;1.27;0.70;;;8.50;99.90;;;;;;4955667;28;20040;-81
2023/01/02 09:31:38;;;;;;;2.28;1.60;;;8.40;99.90;;;;;;4932204;28;20039;-81
2023/01/02 09:34:07;;;;;;;1.85;1.13;;;8.50;99.90;;;;;;4939795;28;20052;-81
2023/01/02 09:36:33;;;;;;;1.70;1.30;;;8.50;99.90;;;;;;4913452;28;20126;-82
2023/01/02 09:39:03;;;;;;;2.72;1.73;;;8.50;99.90;;;;;;4957646;28;20078;-81
2023/01/02 09:41:45;;;;;;;2.22;1.27;;;8.50;99.90;;;;;;4953923;28;20527;-81
2023/01/02 09:44:38;;;;;;;5.70;2.83;;;8.50;99.90;;;;;;4941116;28;20043;-82
2023/01/02 09:47:10;;;;;;;3.83;2.15;;;8.50;99.90;;;;;;4956125;28;20047;-81
2023/01/02 09:49:45;;;;;;;6.10;2.63;;;8.50;99.90;;;;;;4943783;28;20109;-80
2023/01/02 09:52:37;;;;;;;4.65;2.65;;;8.60;99.90;;;;;;4956106;28;20126;-81
2023/01/02 09:55:12;;;;;;;3.08;2.40;;;8.60;99.90;;;;;;4946655;28;20373;-80
2023/01/02 09:58:12;;;;;;;4.68;2.78;;;8.60;99.90;;;;;;4962913;28;20460;-80
2023/01/02 10:00:38;;;;;;;2.85;2.65;;;8.60;99.90;;;;;;4938122;28;20134;-80
2023/01/02 10:03:22;;;;;;;6.07;2.70;;;8.60;99.90;;;;;;4943078;29;20048;-81
2023/01/02 10:06:18;;;;;;;3.20;1.73;;;8.60;99.90;;;;;;4944271;28;20189;-81
2023/01/02 10:08:50;;;;;;;2.83;1.70;;;8.60;99.90;;;;;;4942816;28;20047;-81
2023/01/02 10:11:37;;;;;;;2.78;2.13;;;8.60;99.90;;;;;;4943465;29;20181;-81
2023/01/02 10:14:16;;;;;;;4.35;1.08;;;8.60;99.90;;;;;;4943214;29;20686;-80
2023/01/02 10:16:45;;;;;;;2.45;1.35;;;8.60;99.90;;;;;;4894282;29;20062;-80
2023/01/02 10:19:39;;;;;;;4.20;1.38;;;8.60;99.90;;;;;;4943686;28;20070;-81
2023/01/02 10:22:08;;;;;;;3.70;2.05;;;8.60;99.90;;;;;;4931828;28;20066;-80
2023/01/02 10:24:46;;;;;;;10.02;2.35;;;8.60;99.90;;;;;;4935666;29;20438;-82
2023/01/02 10:27:16;;;;;;;2.30;1.17;;;8.50;99.90;;;;;;4911645;29;20516;-79
2023/01/02 10:30:08;;;;;;;2.25;1.40;;;8.60;99.90;;;;;;4950213;28;20048;-79
2023/01/02 10:32:35;;;;;;;3.30;2.08;;;8.60;99.90;;;;;;4921846;29;20071;-80
2023/01/02 10:35:14;;;;;;;6.57;2.03;;;8.50;99.90;;;;;;4910912;28;20570;-79
2023/01/02 10:37:40;;;;;;;3.72;1.55;;;8.50;99.90;;;;;;4945682;28;20050;-80
2023/01/02 10:40:06;;;;;;;8.38;2.03;;;8.50;99.90;;;;;;4953315;28;20051;-80
2023/01/02 10:42:32;;;;;;;5.40;2.90;;;8.50;99.90;;;;;;4941964;28;20044;-80
2023/01/02 10:44:59;;;;;;;3.95;1.85;;;8.50;99.90;;;;;;4946424;28;20043;-81
2023/01/02 10:47:36;;;;;;;1.65;1.52;;;8.50;99.90;;;;;;4945888;29;20035;-81
2023/01/02 10:50:05;;;;;;;2.17;1.48;;;8.50;99.90;;;;;;4945733;28;20051;-81
2023/01/02 10:52:38;;;;;;;1.98;1.33;;;8.50;99.90;;;;;;4928643;29;20035;-81
2023/01/02 10:55:03;;;;;;;;;;;8.50;99.90;;;;;;4945545;28;20472;-81
2023/01/02 10:57:49;;;;;;;3.30;1.92;;;8.50;99.90;;;;;;4945272;28;19929;-81
2023/01/02 11:00:18;;;;;;;3.00;1.55;;;8.40;99.90;;;;;;4946582;28;20086;-80
2023/01/02 11:02:53;;;;;;;5.20;2.42;;;8.40;99.90;;;;;;4946783;29;20043;-81
2023/01/02 11:05:27;;;;;;;6.35;2.13;;;8.50;99.90;;;;;;4929450;29;20043;-80
2023/01/02 11:07:54;;;;;;;2.70;1.80;;;8.50;99.90;;;;;;4944374;28;20096;-80
2023/01/02 11:10:25;;;;;;;4.03;2.35;;;8.50;99.90;;;;;;4944976;28;20092;-81
2023/01/02 11:12:51;;;;;;;2.25;1.33;;;8.50;99.90;;;;;;4930364;28;20043;-82
2023/01/02 11:15:29;;;;;;;4.50;1.98;;;8.50;99.90;;;;;;4946031;28;20035;-80
2023/01/02 11:17:59;;;;;;;5.07;2.88;;;8.60;99.90;;;;;;4927931;29;20070;-81
2023/01/02 11:20:29;;;;;;;9.20;1.83;;;8.60;99.90;;;;;;4945329;29;20126;-80
2023/01/02 11:22:57;;;;;;;7.03;2.22;;;8.60;99.90;;;;;;4926984;29;20044;-81
2023/01/02 11:25:35;;;;;;;2.15;1.10;;;8.60;99.90;;;;;;4946137;29;20039;-81
2023/01/02 11:28:01;;;;;;;3.08;1.27;;;8.60;99.90;;;;;;4957703;28;20426;-81
2023/01/02 11:30:27;;;;;;;8.43;1.88;;;8.60;99.90;;;;;;4912484;28;20039;-81
2023/01/02 11:33:23;;;;;;;10.35;1.75;;;8.60;99.90;;;;;;4945309;28;20058;-81
2023/01/02 11:36:04;;;;;;;7.82;1.48;;;8.70;99.90;;;;;;4927217;28;20058;-83
2023/01/02 11:38:44;;;;;;;9.10;1.95;;;8.70;99.90;;;;;;4954494;28;20090;-81
2023/01/02 11:44:19;;;;;;;6.82;1.33;;;8.80;99.90;;;;;;4945034;28;20046;-80
2023/01/02 11:46:46;;;;;;;4.47;1.70;;;8.70;99.90;;;;;;4946087;28;20123;-80
2023/01/02 11:49:21;;;;;;;4.63;1.50;;;8.80;99.90;;;;;;4944860;28;20512;-81
2023/01/02 11:51:54;;;;;;;11.27;1.90;;;8.80;99.90;;;;;;4926723;28;20043;-81
2023/01/02 11:54:43;;;;;;;1.33;1.05;;;8.80;99.90;;;;;;4944390;28;20055;-81
2023/01/02 11:57:27;;;;;;;20.20;4.15;;;8.80;99.90;;;;;;4945299;29;20924;-80
2023/01/02 11:59:54;;;;;;;4.40;1.55;;;8.80;99.90;;;;;;4945018;28;21273;-81
2023/01/02 12:02:28;;;;;;;9.13;2.20;;;8.80;99.90;;;;;;4944562;29;20047;-81
2023/01/02 12:04:54;;;;;;;11.93;2.75;;;8.80;99.90;;;;;;4926654;28;20123;-78
2023/01/02 12:07:38;;;;;;;5.07;1.73;;;8.80;99.90;;;;;;4944042;28;20122;-79
2023/01/02 12:10:28;;;;;;;7.85;2.03;;;8.80;99.90;;;;;;4945913;28;20394;-78
2023/01/02 12:13:35;;;;;;;3.97;1.13;;;8.80;99.90;;;;;;4943755;29;20043;-78
2023/01/02 12:16:36;;;;;;;3.60;1.70;;;8.80;99.90;;;;;;4943426;29;20051;-78
2023/01/02 12:19:14;;;;;;;29.92;3.08;;;8.80;99.90;;;;;;4943893;29;20336;-78
2023/01/02 12:21:40;;;;;;;8.70;2.08;;;8.80;99.90;;;;;;4942074;28;20057;-78
2023/01/02 12:24:31;;;;;;;6.97;1.60;;;8.80;99.90;;;;;;4942456;28;20400;-78
2023/01/02 12:27:24;;;;;;;5.18;2.13;;;8.80;99.90;;;;;;4943625;28;20047;-78
2023/01/02 12:30:09;;;;;;;5.00;2.15;;;8.90;99.90;;;;;;4933114;28;20051;-78
2023/01/02 12:32:53;;;;;;;5.93;2.17;;;8.90;99.90;;;;;;4943725;29;20076;-78
2023/01/02 12:35:35;;;;;;;17.60;1.95;;;8.90;99.90;;;;;;4927110;28;20051;-78
2023/01/02 12:38:06;;;;;;;3.90;1.42;;;9.00;99.90;;;;;;4942583;28;20055;-78
2023/01/02 12:40:53;;;;;;;3.90;2.08;;;9.00;99.90;;;;;;4943921;28;20440;-78
2023/01/02 12:43:31;;;;;;;13.98;2.58;;;9.00;99.90;;;;;;4942304;28;20047;-78
2023/01/02 12:46:14;;;;;;;17.73;3.58;;;9.00;99.90;;;;;;4943649;28;20130;-78
2023/01/02 12:49:03;;;;;;;6.47;3.13;;;9.00;99.90;;;;;;4914578;28;20051;-78
2023/01/02 12:51:48;;;;;;;4.57;2.28;;;9.00;99.90;;;;;;4927596;28;20043;-80
2023/01/02 12:54:33;;;;;;;8.90;2.80;;;9.00;99.90;;;;;;4940777;28;20051;-79
2023/01/02 12:57:40;;;;;;;7.45;2.10;;;9.00;99.90;;;;;;4940947;29;20097;-80
2023/01/02 13:00:44;;;;;;;5.18;1.95;;;9.00;99.90;;;;;;4947994;28;20545;-79
2023/01/02 13:03:36;;;;;;;8.88;2.08;;;9.00;99.90;;;;;;4957242;28;20062;-80
2023/01/02 13:06:16;;;;;;;4.93;2.50;;;9.00;99.90;;;;;;4929522;28;20062;-79
2023/01/02 13:08:59;;;;;;;5.25;2.53;;;9.00;99.90;;;;;;4926404;28;20051;-79
2023/01/02 13:11:47;;;;;;;;;;;9.00;99.90;;;;;;4942121;28;20046;-80
2023/01/02 13:14:22;;;;;;;10.38;3.83;;;9.00;99.90;;;;;;4944262;28;19922;-80
2023/01/02 13:17:11;;;;;;;5.57;3.50;;;9.00;99.90;;;;;;4940842;28;20039;-81